1 a 10/2 - Caluroso C y N, luego frente estacionario y tiempo inestable

Avatar de Usuario
Ezequiel1995
Mensajes: 827
Registrado: Mar Nov 12, 2019 4:50 pm
Ubicación: Merlo, Buenos Aires
Contactar:

Re: 1 a 10/2 - Caluroso C y N, luego frente estacionario y tiempo inestable

Mensaje por Ezequiel1995 » Vie Feb 07, 2020 2:24 pm

Ya paró completamente por acá. El viento fresco sigue, pero leve a moderado.
EDIT: Mientras escribía se volvió a largar!
Última edición por Ezequiel1995 el Vie Feb 07, 2020 2:25 pm, editado 1 vez en total.

Avatar de Usuario
Diecha
Mensajes: 10157
Registrado: Jue Ago 25, 2011 9:31 pm
Ubicación: Lomas de Zamora

Re: 1 a 10/2 - Caluroso C y N, luego frente estacionario y tiempo inestable

Mensaje por Diecha » Vie Feb 07, 2020 2:24 pm

- San Fernando 14 hs: SADF 071700Z 09017KT 9999 TS SCT020 FEW040CB BKN090 28/24 Q1013
- Aeroparque 14 hs: SABE 071700Z 11020KT 9999 VCTS SCT015 SCT050CB BKN070 27/23 Q1013
- Ezeiza 14 hs: SAEZ 071700Z 21007KT 1500 +TSRA BKN025 FEW045CB BKN050 27/23 Q1013

Imagen
Imagen
Imagen
Última edición por Diecha el Vie Feb 07, 2020 2:27 pm, editado 1 vez en total.

Avatar de Usuario
Ezequiel1995
Mensajes: 827
Registrado: Mar Nov 12, 2019 4:50 pm
Ubicación: Merlo, Buenos Aires
Contactar:

Re: 1 a 10/2 - Caluroso C y N, luego frente estacionario y tiempo inestable

Mensaje por Ezequiel1995 » Vie Feb 07, 2020 2:26 pm

Hace mucho tiempo que no veía 25° de TD

Avatar de Usuario
Diecha
Mensajes: 10157
Registrado: Jue Ago 25, 2011 9:31 pm
Ubicación: Lomas de Zamora

Re: 1 a 10/2 - Caluroso C y N, luego frente estacionario y tiempo inestable

Mensaje por Diecha » Vie Feb 07, 2020 2:27 pm


Avatar de Usuario
Gastii1648
Mensajes: 294
Registrado: Vie Abr 05, 2019 10:26 pm
Ubicación: Rincón de Milberg, Tigre - GBA Norte

Re: 1 a 10/2 - Caluroso C y N, luego frente estacionario y tiempo inestable

Mensaje por Gastii1648 » Vie Feb 07, 2020 2:28 pm

Desde Rincón de Milberg, Tigre mirando hacia el Sudoeste Aproximadamente (Foto Propia). Se Largo a Lloviznar!! :|
IMG_20200207_142246091.jpg
Me pidió Tiempo y le dije: Cielo parcialmente nublado, Temperatura 20°C y con probabilidad de lluvias. Se Enojó :lol:

Avatar de Usuario
Diecha
Mensajes: 10157
Registrado: Jue Ago 25, 2011 9:31 pm
Ubicación: Lomas de Zamora

Re: 1 a 10/2 - Caluroso C y N, luego frente estacionario y tiempo inestable

Mensaje por Diecha » Vie Feb 07, 2020 2:29 pm


Avatar de Usuario
Ale de Castelar
Mensajes: 24297
Registrado: Sab Mar 03, 2012 12:25 pm
Ubicación: Caballito

Re: 1 a 10/2 - Caluroso C y N, luego frente estacionario y tiempo inestable

Mensaje por Ale de Castelar » Vie Feb 07, 2020 2:39 pm

Lugano
Adjuntos
EQMIi6uXYAA9YVK.jpeg

Avatar de Usuario
Fedex
Mensajes: 2671
Registrado: Jue Jul 17, 2014 3:30 pm
Ubicación: Villa Ballester, San Martin, Buenos Aires
Contactar:

Re: 1 a 10/2 - Caluroso C y N, luego frente estacionario y tiempo inestable

Mensaje por Fedex » Vie Feb 07, 2020 2:42 pm

Zona Norte va a ligar muy poco. No llueve ni parece que vaya a llover mucho.. :geek:
Cada vez que se superan los 24°C de Td, un gatito renace.

#MuerteALasLineas

El corazón late y es suficiente

Avatar de Usuario
Ale de Castelar
Mensajes: 24297
Registrado: Sab Mar 03, 2012 12:25 pm
Ubicación: Caballito

Re: 1 a 10/2 - Caluroso C y N, luego frente estacionario y tiempo inestable

Mensaje por Ale de Castelar » Vie Feb 07, 2020 2:45 pm

Victoria ER


Avatar de Usuario
Diecha
Mensajes: 10157
Registrado: Jue Ago 25, 2011 9:31 pm
Ubicación: Lomas de Zamora

Re: 1 a 10/2 - Caluroso C y N, luego frente estacionario y tiempo inestable

Mensaje por Diecha » Vie Feb 07, 2020 2:49 pm


Responder